Weather History for KAVK - April, 2013

Change the Weather History Date:

Thursday, April 4, 2013

  Actual Average Record
Temperature  
Mean Temperature 42 °F -  
Max Temperature 50 °F 64 °F 88 °F (1967)
Min Temperature 35 °F 39 °F 24 °F (2015)
Degree Days  
Heating Degree Days 22    
Moisture  
Dew Point 37 °F    
Average Humidity 87    
Maximum Humidity 100    
Minimum Humidity 62    
Precipitation  
Precipitation 0.00 in - - ()
Sea Level Pressure  
Sea Level Pressure 30.19 in    
Wind  
Wind Speed 6 mph (WNW)    
Max Wind Speed 10 mph    
Max Gust Speed -    
Visibility 8 miles    
Events      
Averages and records for this station are not official NWS values.
T = Trace of Precipitation, MM = Missing Value Source: NWS Daily Summary

Daily Weather History Graph

Daily Weather History Graph

Search for Another Location

Airport or City:

Trip Planner

Search our weather history database for the weather conditions in past years. The results will help you decide how hot, cold, wet, or windy it might be!

Date:

Astronomy

Apr. 04, 2013 Rise Set
Actual Time 7:15 AM CDT 7:59 PM CDT
Civil Twilight 6:49 AM CDT 8:26 PM CDT
Nautical Twilight 6:18 AM CDT 8:57 PM CDT
Astronomical Twilight 5:46 AM CDT 9:28 PM CDT
Moon 3:35 AM CDT (4/4) 2:27 PM CDT (4/4)
Length of Visible Light 13h 36m
Length of Day
12h 44m
Waning Crescent, 33% of the Moon is Illuminated
Apr 4
Waning Crescent
Apr 10
New
Apr 18
First Quarter
Apr 25
Full
May 2
Last Quarter

Hourly Weather History & Observations

Time (CDT) Temp. Windchill Dew Point Humidity Pressure Visibility Wind Dir Wind Speed Gust Speed Precip Events Conditions
12:10 AM 35.6 °F 30.7 °F 35.6 °F 100% 30.25 in 3.0 mi NE 5.8 mph - N/A   Overcast
12:30 AM 35.6 °F 30.7 °F 35.6 °F 100% 30.24 in 3.0 mi NE 5.8 mph - N/A   Overcast
12:50 AM 35.6 °F 30.7 °F 35.6 °F 100% 30.24 in 4.0 mi NE 5.8 mph - N/A   Overcast
1:10 AM 35.6 °F 30.7 °F 35.6 °F 100% 30.24 in 4.0 mi North 5.8 mph - N/A   Overcast
1:30 AM 35.6 °F 30.7 °F 35.6 °F 100% 30.24 in 4.0 mi North 5.8 mph - N/A   Overcast
1:50 AM 35.6 °F 30.7 °F 35.6 °F 100% 30.24 in 5.0 mi North 5.8 mph - N/A   Overcast
2:10 AM 35.6 °F 30.7 °F 35.6 °F 100% 30.24 in 5.0 mi North 5.8 mph - N/A   Overcast
2:30 AM 35.6 °F 29.9 °F 35.6 °F 100% 30.23 in 5.0 mi North 6.9 mph - N/A   Overcast
2:50 AM 35.6 °F 29.9 °F 35.6 °F 100% 30.23 in 5.0 mi North 6.9 mph - N/A   Overcast
3:10 AM 35.6 °F 30.7 °F 35.6 °F 100% 30.22 in 5.0 mi North 5.8 mph - N/A   Overcast
3:30 AM 35.6 °F 31.7 °F 35.6 °F 100% 30.21 in 5.0 mi North 4.6 mph - N/A   Overcast
3:50 AM 35.6 °F - 35.6 °F 100% 30.21 in 5.0 mi Calm Calm - N/A   Overcast
4:10 AM 35.6 °F 32.8 °F 35.6 °F 100% 30.21 in 7.0 mi North 3.5 mph - N/A   Overcast
4:30 AM 35.6 °F 31.7 °F 35.6 °F 100% 30.21 in 6.0 mi NNW 4.6 mph - N/A   Overcast
4:50 AM 35.6 °F 31.7 °F 35.6 °F 100% 30.21 in 5.0 mi NNW 4.6 mph - N/A   Overcast
5:10 AM 35.6 °F 31.7 °F 35.6 °F 100% 30.21 in 6.0 mi NNW 4.6 mph - N/A   Overcast
5:30 AM 35.6 °F 31.7 °F 35.6 °F 100% 30.21 in 6.0 mi NNW 4.6 mph - N/A   Overcast
5:50 AM 35.6 °F 29.9 °F 35.6 °F 100% 30.21 in 6.0 mi NNW 6.9 mph - N/A   Overcast
6:10 AM 35.6 °F 30.7 °F 35.6 °F 100% 30.21 in 7.0 mi NNW 5.8 mph - N/A   Overcast
6:30 AM 35.6 °F 30.7 °F 35.6 °F 100% 30.21 in 7.0 mi NNW 5.8 mph - N/A   Overcast
6:50 AM 35.6 °F 31.7 °F 35.6 °F 100% 30.21 in 7.0 mi NNW 4.6 mph - N/A   Overcast
7:10 AM 35.6 °F 30.7 °F 35.6 °F 100% 30.21 in 7.0 mi NNW 5.8 mph - N/A   Overcast
7:30 AM 35.6 °F 29.9 °F 35.6 °F 100% 30.21 in 7.0 mi NNW 6.9 mph - N/A   Overcast
7:50 AM 35.6 °F 31.7 °F 35.6 °F 100% 30.21 in 7.0 mi NNW 4.6 mph - N/A   Overcast
8:10 AM 37.4 °F 32.1 °F 37.4 °F 100% 30.21 in 5.0 mi NW 6.9 mph - N/A   Overcast
8:25 AM 37.4 °F 32.1 °F 37.4 °F 100% 30.22 in 6.0 mi NNW 6.9 mph - N/A   Overcast
8:50 AM 37.4 °F 32.8 °F 37.4 °F 100% 30.22 in 6.0 mi NW 5.8 mph - N/A   Overcast
9:10 AM 39.2 °F 35.0 °F 39.2 °F 100% 30.22 in 7.0 mi NW 5.8 mph - N/A   Overcast
9:30 AM 39.2 °F 33.6 °F 37.4 °F 93% 30.23 in 7.0 mi NW 8.1 mph - N/A   Overcast
9:50 AM 39.2 °F 33.6 °F 37.4 °F 93% 30.22 in 7.0 mi NNW 8.1 mph - N/A   Overcast
10:10 AM 39.2 °F 33.6 °F 37.4 °F 93% 30.23 in 8.0 mi NNW 8.1 mph - N/A   Overcast
10:30 AM 39.2 °F 33.6 °F 37.4 °F 93% 30.22 in 8.0 mi NW 8.1 mph - N/A   Overcast
10:50 AM 41.0 °F 35.8 °F 37.4 °F 87% 30.23 in 9.0 mi NW 8.1 mph - N/A   Overcast
11:50 AM 44.6 °F 39.2 °F 37.4 °F 76% 30.23 in 10.0 mi NW 10.4 mph - N/A   Overcast
12:10 PM 44.6 °F 40.2 °F 37.4 °F 76% 30.22 in 10.0 mi WNW 8.1 mph - N/A   Overcast
12:30 PM 44.6 °F 40.7 °F 37.4 °F 76% 30.22 in 10.0 mi NW 6.9 mph - N/A   Overcast
12:50 PM 46.4 °F 42.4 °F 37.4 °F 71% 30.22 in 10.0 mi WNW 8.1 mph - N/A   Overcast
1:10 PM 46.4 °F 41.5 °F 39.2 °F 76% 30.21 in 10.0 mi WNW 10.4 mph - N/A   Overcast
1:30 PM 46.4 °F 42.4 °F 37.4 °F 71% 30.20 in 10.0 mi WNW 8.1 mph - N/A   Overcast
1:50 PM 46.4 °F 45.2 °F 37.4 °F 71% 30.20 in 10.0 mi West 3.5 mph - N/A   Overcast
2:10 PM 48.2 °F - 37.4 °F 66% 30.19 in 10.0 mi NNW 5.8 mph - N/A   Overcast
2:30 PM 48.2 °F - 37.4 °F 66% 30.18 in 10.0 mi NW 5.8 mph - N/A   Overcast
2:50 PM 48.2 °F - 37.4 °F 66% 30.18 in 10.0 mi WSW 3.5 mph - N/A   Overcast
3:10 PM 48.2 °F - 35.6 °F 62% 30.17 in 10.0 mi Calm Calm - N/A   Overcast
3:30 PM 48.2 °F - 37.4 °F 66% 30.17 in 10.0 mi West 3.5 mph - N/A   Overcast
3:50 PM 48.2 °F - 37.4 °F 66% 30.16 in 10.0 mi SSW 3.5 mph - N/A   Mostly Cloudy
4:10 PM 50.0 °F - 37.4 °F 62% 30.15 in 10.0 mi SW 4.6 mph - N/A   Mostly Cloudy
4:30 PM 50.0 °F - 37.4 °F 62% 30.15 in 10.0 mi Calm Calm - N/A   Overcast
4:50 PM 50.0 °F - 39.2 °F 66% 30.15 in 10.0 mi SSW 6.9 mph - N/A   Overcast
5:10 PM 50.0 °F - 39.2 °F 66% 30.14 in 10.0 mi SW 6.9 mph - N/A   Mostly Cloudy
5:30 PM 50.0 °F - 39.2 °F 66% 30.14 in 10.0 mi West 3.5 mph - N/A   Mostly Cloudy
5:50 PM 50.0 °F - 37.4 °F 62% 30.14 in 10.0 mi WSW 3.5 mph - N/A   Partly Cloudy
6:10 PM 50.0 °F - 37.4 °F 62% 30.15 in 10.0 mi Calm Calm - N/A   Clear
6:30 PM 50.0 °F - 39.2 °F 66% 30.15 in 10.0 mi West 4.6 mph - N/A   Clear
6:50 PM 50.0 °F - 39.2 °F 66% 30.15 in 10.0 mi Calm Calm - N/A   Clear
7:10 PM 50.0 °F - 39.2 °F 66% 30.15 in 10.0 mi SW 3.5 mph - N/A   Clear
7:30 PM 48.2 °F - 39.2 °F 71% 30.14 in 10.0 mi South 5.8 mph - N/A   Clear
7:50 PM 46.4 °F 44.3 °F 39.2 °F 76% 30.15 in 10.0 mi SSW 4.6 mph - N/A   Clear
8:10 PM 46.4 °F 43.5 °F 39.2 °F 76% 30.15 in 10.0 mi South 5.8 mph - N/A   Clear
8:30 PM 44.6 °F 40.7 °F 39.2 °F 81% 30.15 in 10.0 mi South 6.9 mph - N/A   Clear
8:50 PM 41.0 °F 35.8 °F 37.4 °F 87% 30.15 in 10.0 mi South 8.1 mph - N/A   Clear
9:10 PM 41.0 °F 35.8 °F 39.2 °F 93% 30.16 in 10.0 mi South 8.1 mph - N/A   Clear
9:30 PM 39.2 °F 33.0 °F 37.4 °F 93% 30.16 in 10.0 mi South 9.2 mph - N/A   Clear
9:50 PM 39.2 °F 33.0 °F 37.4 °F 93% 30.17 in 10.0 mi South 9.2 mph - N/A   Clear
10:10 PM 39.2 °F 33.6 °F 37.4 °F 93% 30.17 in 10.0 mi South 8.1 mph - N/A   Clear
10:30 PM 37.4 °F 32.1 °F 37.4 °F 100% 30.17 in 10.0 mi South 6.9 mph - N/A   Clear
10:50 PM 35.6 °F 29.2 °F 35.6 °F 100% 30.17 in 10.0 mi South 8.1 mph - N/A   Clear
11:10 PM 35.6 °F 29.2 °F 35.6 °F 100% 30.17 in 10.0 mi South 8.1 mph - N/A   Clear
11:30 PM 35.6 °F 29.2 °F 35.6 °F 100% 30.17 in 10.0 mi South 8.1 mph - N/A   Clear
11:50 PM 37.4 °F 31.4 °F 37.4 °F 100% 30.17 in 10.0 mi South 8.1 mph - N/A   Clear